Terminal Aerodrome Forecast
Issued by NWS

Home | Current Version | Previous Version | Text Only | Print | Product List | Glossary On
Versions: 1 2 3 4 5 6 7 8 9 10 11 12 13 14 15 16 17 18 19
000
FTUS43 KMQT 161700
TAFIWD
TAF
KIWD 161738Z 1618/1718 10010KT 1/2SM SN OVC010
     FM162000 12015KT 1/2SM SN OVC008
     FM170200 12012KT 1SM -SN OVC008
     FM170600 08007KT 1/2SM SN OVC008
     FM171200 07007KT 2SM -SN OVC008
     FM171500 31007KT 5SM -SHSN OVC010
      AMD LTD TO CLD VIS AND WIND=

USA.gov is the U.S. government's official web portal to all federal, state and local government web resources and services.